sensor_id;sensor_type;location;lat;lon;timestamp;pressure;altitude;pressure_sealevel;temperature;humidity
62697;BME280;48761;42.680;23.312;2023-04-06T00:00:55;94593.13;;;1.02;64.94
62697;BME280;48761;42.680;23.312;2023-04-06T00:03:21;94596.84;;;1.20;64.87
62697;BME280;48761;42.680;23.312;2023-04-06T00:05:47;94585.41;;;0.98;65.43
62697;BME280;48761;42.680;23.312;2023-04-06T00:08:13;94580.41;;;0.92;65.83
62697;BME280;48761;42.680;23.312;2023-04-06T00:10:39;94547.94;;;0.72;65.98
62697;BME280;48761;42.680;23.312;2023-04-06T00:13:06;94569.13;;;0.90;65.72
62697;BME280;48761;42.680;23.312;2023-04-06T00:15:32;94570.72;;;0.70;66.35
62697;BME280;48761;42.680;23.312;2023-04-06T00:17:58;94572.44;;;0.95;65.82
62697;BME280;48761;42.680;23.312;2023-04-06T00:20:24;94574.47;;;0.87;66.02
62697;BME280;48761;42.680;23.312;2023-04-06T00:22:50;94546.91;;;0.76;66.13
62697;BME280;48761;42.680;23.312;2023-04-06T00:25:16;94545.47;;;0.93;65.95
62697;BME280;48761;42.680;23.312;2023-04-06T00:27:42;94567.19;;;0.95;65.99
62697;BME280;48761;42.680;23.312;2023-04-06T00:30:08;94555.13;;;0.67;66.46
62697;BME280;48761;42.680;23.312;2023-04-06T00:32:35;94552.56;;;0.89;66.26
62697;BME280;48761;42.680;23.312;2023-04-06T00:35:02;94551.53;;;0.70;66.60
62697;BME280;48761;42.680;23.312;2023-04-06T00:37:28;94548.41;;;0.84;66.31
62697;BME280;48761;42.680;23.312;2023-04-06T00:39:54;94552.66;;;0.86;66.54
62697;BME280;48761;42.680;23.312;2023-04-06T00:42:21;94549.88;;;0.91;66.35
62697;BME280;48761;42.680;23.312;2023-04-06T00:44:47;94549.66;;;0.97;66.10
62697;BME280;48761;42.680;23.312;2023-04-06T00:47:13;94545.50;;;0.92;66.28
62697;BME280;48761;42.680;23.312;2023-04-06T00:49:39;94546.25;;;0.95;66.49
62697;BME280;48761;42.680;23.312;2023-04-06T00:52:05;94540.50;;;0.85;66.23
62697;BME280;48761;42.680;23.312;2023-04-06T00:54:31;94544.50;;;0.96;66.19
62697;BME280;48761;42.680;23.312;2023-04-06T00:56:57;94530.75;;;0.89;66.08
62697;BME280;48761;42.680;23.312;2023-04-06T00:59:23;94544.22;;;1.04;65.84
62697;BME280;48761;42.680;23.312;2023-04-06T01:01:49;94529.25;;;0.83;65.91
62697;BME280;48761;42.680;23.312;2023-04-06T01:04:15;94549.78;;;0.94;66.15
62697;BME280;48761;42.680;23.312;2023-04-06T01:06:41;94544.59;;;1.17;65.94
62697;BME280;48761;42.680;23.312;2023-04-06T01:09:06;94548.53;;;1.29;65.13
62697;BME280;48761;42.680;23.312;2023-04-06T01:11:32;94535.44;;;1.05;65.52
62697;BME280;48761;42.680;23.312;2023-04-06T01:13:58;94524.28;;;0.99;66.18
62697;BME280;48761;42.680;23.312;2023-04-06T01:16:24;94543.75;;;1.16;66.02
62697;BME280;48761;42.680;23.312;2023-04-06T01:18:50;94543.13;;;1.09;65.69
62697;BME280;48761;42.680;23.312;2023-04-06T01:21:16;94535.22;;;1.11;65.82
62697;BME280;48761;42.680;23.312;2023-04-06T01:23:46;94534.59;;;1.27;65.84
62697;BME280;48761;42.680;23.312;2023-04-06T01:26:13;94529.22;;;1.07;65.49
62697;BME280;48761;42.680;23.312;2023-04-06T01:28:39;94513.91;;;0.96;66.00
62697;BME280;48761;42.680;23.312;2023-04-06T01:31:06;94525.75;;;1.07;65.52
62697;BME280;48761;42.680;23.312;2023-04-06T01:33:32;94491.66;;;0.86;65.90
62697;BME280;48761;42.680;23.312;2023-04-06T01:35:58;94533.38;;;1.13;65.84
62697;BME280;48761;42.680;23.312;2023-04-06T01:38:24;94522.38;;;0.81;66.15
62697;BME280;48761;42.680;23.312;2023-04-06T01:40:50;94517.13;;;0.81;66.62
62697;BME280;48761;42.680;23.312;2023-04-06T01:43:16;94530.75;;;0.89;66.64
62697;BME280;48761;42.680;23.312;2023-04-06T01:45:42;94516.19;;;0.82;66.95
62697;BME280;48761;42.680;23.312;2023-04-06T01:48:08;94515.91;;;0.89;66.62
62697;BME280;48761;42.680;23.312;2023-04-06T01:50:33;94521.56;;;1.03;66.77
62697;BME280;48761;42.680;23.312;2023-04-06T01:52:59;94508.81;;;0.93;66.25
62697;BME280;48761;42.680;23.312;2023-04-06T01:55:25;94512.91;;;1.00;66.52
62697;BME280;48761;42.680;23.312;2023-04-06T01:57:51;94509.09;;;0.85;66.71
62697;BME280;48761;42.680;23.312;2023-04-06T02:00:17;94511.88;;;1.05;66.40
62697;BME280;48761;42.680;23.312;2023-04-06T02:02:43;94501.06;;;0.90;66.86
62697;BME280;48761;42.680;23.312;2023-04-06T02:05:09;94504.25;;;0.98;66.69
62697;BME280;48761;42.680;23.312;2023-04-06T02:07:35;94499.25;;;0.92;66.72
62697;BME280;48761;42.680;23.312;2023-04-06T02:10:01;94510.22;;;1.02;66.29
62697;BME280;48761;42.680;23.312;2023-04-06T02:12:27;94503.13;;;1.06;66.57
62697;BME280;48761;42.680;23.312;2023-04-06T02:14:53;94487.19;;;0.88;66.53
62697;BME280;48761;42.680;23.312;2023-04-06T02:17:19;94502.66;;;0.94;66.79
62697;BME280;48761;42.680;23.312;2023-04-06T02:19:46;94478.09;;;0.98;66.00
62697;BME280;48761;42.680;23.312;2023-04-06T02:22:12;94495.38;;;1.03;65.88
62697;BME280;48761;42.680;23.312;2023-04-06T02:24:38;94512.94;;;1.23;65.84
62697;BME280;48761;42.680;23.312;2023-04-06T02:27:03;94475.00;;;0.87;66.03
62697;BME280;48761;42.680;23.312;2023-04-06T02:29:29;94497.09;;;1.04;66.18
62697;BME280;48761;42.680;23.312;2023-04-06T02:31:55;94491.59;;;1.10;66.16
62697;BME280;48761;42.680;23.312;2023-04-06T02:34:21;94506.63;;;1.29;65.99
62697;BME280;48761;42.680;23.312;2023-04-06T02:36:47;94502.69;;;1.39;65.80
62697;BME280;48761;42.680;23.312;2023-04-06T02:39:13;94506.97;;;1.42;65.71
62697;BME280;48761;42.680;23.312;2023-04-06T02:41:39;94505.50;;;1.34;65.77
62697;BME280;48761;42.680;23.312;2023-04-06T02:44:08;94514.47;;;1.29;65.36
62697;BME280;48761;42.680;23.312;2023-04-06T02:46:34;94471.75;;;1.27;65.54
62697;BME280;48761;42.680;23.312;2023-04-06T02:49:00;94509.16;;;1.53;65.04
62697;BME280;48761;42.680;23.312;2023-04-06T02:51:26;94495.28;;;1.51;64.96
62697;BME280;48761;42.680;23.312;2023-04-06T02:53:53;94501.13;;;1.35;65.75
62697;BME280;48761;42.680;23.312;2023-04-06T02:56:18;94467.63;;;1.21;65.28
62697;BME280;48761;42.680;23.312;2023-04-06T02:58:44;94507.59;;;1.49;65.44
62697;BME280;48761;42.680;23.312;2023-04-06T03:01:10;94497.09;;;1.26;65.95
62697;BME280;48761;42.680;23.312;2023-04-06T03:03:36;94489.06;;;1.31;65.79
62697;BME280;48761;42.680;23.312;2023-04-06T03:06:02;94508.41;;;1.04;66.77
62697;BME280;48761;42.680;23.312;2023-04-06T03:08:28;94510.50;;;1.18;65.88
62697;BME280;48761;42.680;23.312;2023-04-06T03:10:54;94505.72;;;1.06;66.26
62697;BME280;48761;42.680;23.312;2023-04-06T03:13:20;94505.44;;;0.89;66.64
62697;BME280;48761;42.680;23.312;2023-04-06T03:15:46;94505.38;;;1.15;66.65
62697;BME280;48761;42.680;23.312;2023-04-06T03:18:12;94504.75;;;1.08;66.60
62697;BME280;48761;42.680;23.312;2023-04-06T03:20:38;94480.75;;;0.97;66.78
62697;BME280;48761;42.680;23.312;2023-04-06T03:23:04;94510.25;;;1.25;65.97
62697;BME280;48761;42.680;23.312;2023-04-06T03:25:30;94466.47;;;1.06;65.51
62697;BME280;48761;42.680;23.312;2023-04-06T03:27:56;94511.84;;;1.29;65.87
62697;BME280;48761;42.680;23.312;2023-04-06T03:30:22;94487.72;;;1.20;66.20
62697;BME280;48761;42.680;23.312;2023-04-06T03:32:47;94478.63;;;1.07;66.22
62697;BME280;48761;42.680;23.312;2023-04-06T03:35:13;94501.38;;;1.29;65.99
62697;BME280;48761;42.680;23.312;2023-04-06T03:37:39;94485.03;;;1.22;66.20
62697;BME280;48761;42.680;23.312;2023-04-06T03:40:06;94509.38;;;1.24;65.80
62697;BME280;48761;42.680;23.312;2023-04-06T03:42:32;94490.69;;;1.11;65.94
62697;BME280;48761;42.680;23.312;2023-04-06T03:44:58;94505.50;;;1.34;65.82
62697;BME280;48761;42.680;23.312;2023-04-06T03:47:24;94502.38;;;1.25;65.62
62697;BME280;48761;42.680;23.312;2023-04-06T03:49:50;94491.38;;;1.39;65.43
62697;BME280;48761;42.680;23.312;2023-04-06T03:52:16;94501.78;;;1.40;65.10
62697;BME280;48761;42.680;23.312;2023-04-06T03:54:42;94491.72;;;1.52;64.99
62697;BME280;48761;42.680;23.312;2023-04-06T03:57:08;94492.34;;;1.59;64.98
62697;BME280;48761;42.680;23.312;2023-04-06T03:59:34;94494.59;;;1.45;64.89
62697;BME280;48761;42.680;23.312;2023-04-06T04:02:00;94492.28;;;1.60;64.22
62697;BME280;48761;42.680;23.312;2023-04-06T04:04:26;94490.94;;;1.50;64.85
62697;BME280;48761;42.680;23.312;2023-04-06T04:06:51;94499.06;;;1.43;65.04
62697;BME280;48761;42.680;23.312;2023-04-06T04:09:17;94500.75;;;1.44;64.82
62697;BME280;48761;42.680;23.312;2023-04-06T04:11:43;94502.09;;;1.32;65.13
62697;BME280;48761;42.680;23.312;2023-04-06T04:14:09;94472.19;;;1.38;65.16
62697;BME280;48761;42.680;23.312;2023-04-06T04:16:35;94503.50;;;1.41;65.44
62697;BME280;48761;42.680;23.312;2023-04-06T04:19:01;94487.13;;;1.36;64.91
62697;BME280;48761;42.680;23.312;2023-04-06T04:21:29;94499.53;;;1.53;65.34
62697;BME280;48761;42.680;23.312;2023-04-06T04:23:55;94494.06;;;1.37;65.01
62697;BME280;48761;42.680;23.312;2023-04-06T04:26:21;94473.25;;;1.34;65.38
62697;BME280;48761;42.680;23.312;2023-04-06T04:28:46;94505.88;;;1.48;65.76
62697;BME280;48761;42.680;23.312;2023-04-06T04:31:12;94492.88;;;1.22;65.57
62697;BME280;48761;42.680;23.312;2023-04-06T04:33:38;94500.44;;;1.30;65.60
62697;BME280;48761;42.680;23.312;2023-04-06T04:36:04;94496.13;;;1.51;65.24
62697;BME280;48761;42.680;23.312;2023-04-06T04:38:30;94501.00;;;1.38;65.10
62697;BME280;48761;42.680;23.312;2023-04-06T04:40:56;94501.88;;;1.39;65.56
62697;BME280;48761;42.680;23.312;2023-04-06T04:43:22;94503.81;;;1.33;65.49
62697;BME280;48761;42.680;23.312;2023-04-06T04:45:49;94506.13;;;1.41;65.45
62697;BME280;48761;42.680;23.312;2023-04-06T04:48:15;94478.28;;;1.39;65.61
62697;BME280;48761;42.680;23.312;2023-04-06T04:50:41;94485.03;;;1.44;65.52
62697;BME280;48761;42.680;23.312;2023-04-06T04:53:07;94493.03;;;1.64;65.45
62697;BME280;48761;42.680;23.312;2023-04-06T04:55:33;94490.44;;;1.62;64.75
62697;BME280;48761;42.680;23.312;2023-04-06T04:57:59;94474.00;;;1.59;65.04
62697;BME280;48761;42.680;23.312;2023-04-06T05:00:24;94497.31;;;1.65;64.60
62697;BME280;48761;42.680;23.312;2023-04-06T05:02:50;94488.59;;;1.43;65.39
62697;BME280;48761;42.680;23.312;2023-04-06T05:05:16;94479.94;;;1.41;64.85
62697;BME280;48761;42.680;23.312;2023-04-06T05:07:42;94496.97;;;1.52;65.28
62697;BME280;48761;42.680;23.312;2023-04-06T05:10:08;94491.91;;;1.70;65.46
62697;BME280;48761;42.680;23.312;2023-04-06T05:12:34;94479.13;;;1.83;65.40
62697;BME280;48761;42.680;23.312;2023-04-06T05:15:00;94489.28;;;1.70;65.19
62697;BME280;48761;42.680;23.312;2023-04-06T05:17:26;94493.03;;;1.64;65.15
62697;BME280;48761;42.680;23.312;2023-04-06T05:19:52;94494.34;;;1.74;65.18
62697;BME280;48761;42.680;23.312;2023-04-06T05:22:18;94501.47;;;1.71;65.14
62697;BME280;48761;42.680;23.312;2023-04-06T05:24:44;94491.69;;;1.53;65.59
62697;BME280;48761;42.680;23.312;2023-04-06T05:27:10;94495.00;;;1.57;65.85
62697;BME280;48761;42.680;23.312;2023-04-06T05:29:36;94497.47;;;1.62;66.05
62697;BME280;48761;42.680;23.312;2023-04-06T05:32:02;94490.25;;;1.67;65.63
62697;BME280;48761;42.680;23.312;2023-04-06T05:34:28;94495.69;;;1.62;66.19
62697;BME280;48761;42.680;23.312;2023-04-06T05:36:54;94493.19;;;1.82;66.08
62697;BME280;48761;42.680;23.312;2023-04-06T05:39:20;94481.75;;;1.62;66.29
62697;BME280;48761;42.680;23.312;2023-04-06T05:41:46;94494.19;;;1.56;67.00
62697;BME280;48761;42.680;23.312;2023-04-06T05:44:11;94454.09;;;1.32;66.83
62697;BME280;48761;42.680;23.312;2023-04-06T05:46:37;94491.59;;;1.55;67.63
62697;BME280;48761;42.680;23.312;2023-04-06T05:49:03;94492.53;;;1.54;67.78
62697;BME280;48761;42.680;23.312;2023-04-06T05:51:29;94441.44;;;1.21;67.46
62697;BME280;48761;42.680;23.312;2023-04-06T05:53:55;94492.84;;;1.46;67.58
62697;BME280;48761;42.680;23.312;2023-04-06T05:56:21;94475.50;;;1.64;67.59
62697;BME280;48761;42.680;23.312;2023-04-06T05:58:47;94472.25;;;1.80;66.82
62697;BME280;48761;42.680;23.312;2023-04-06T06:01:13;94483.69;;;1.79;67.36
62697;BME280;48761;42.680;23.312;2023-04-06T06:03:39;94487.16;;;2.00;66.61
62697;BME280;48761;42.680;23.312;2023-04-06T06:06:05;94480.22;;;1.99;66.50
62697;BME280;48761;42.680;23.312;2023-04-06T06:08:31;94465.31;;;2.00;66.86
62697;BME280;48761;42.680;23.312;2023-04-06T06:10:57;94446.81;;;1.82;66.92
62697;BME280;48761;42.680;23.312;2023-04-06T06:13:23;94477.53;;;2.01;66.25
62697;BME280;48761;42.680;23.312;2023-04-06T06:15:50;94481.19;;;2.18;67.75
62697;BME280;48761;42.680;23.312;2023-04-06T06:18:16;94472.94;;;2.27;67.09
62697;BME280;48761;42.680;23.312;2023-04-06T06:20:42;94482.25;;;2.34;66.98
62697;BME280;48761;42.680;23.312;2023-04-06T06:23:08;94462.66;;;2.63;66.76
62697;BME280;48761;42.680;23.312;2023-04-06T06:25:34;94460.44;;;3.11;66.43
62697;BME280;48761;42.680;23.312;2023-04-06T06:28:00;94460.13;;;3.37;64.53
62697;BME280;48761;42.680;23.312;2023-04-06T06:30:26;94475.66;;;3.61;63.48
62697;BME280;48761;42.680;23.312;2023-04-06T06:32:52;94471.94;;;3.65;63.74
62697;BME280;48761;42.680;23.312;2023-04-06T06:35:19;94465.06;;;3.25;63.14
62697;BME280;48761;42.680;23.312;2023-04-06T06:37:44;94444.78;;;2.90;64.20
62697;BME280;48761;42.680;23.312;2023-04-06T06:40:10;94453.47;;;3.30;63.59
62697;BME280;48761;42.680;23.312;2023-04-06T06:42:36;94481.84;;;3.60;63.19
62697;BME280;48761;42.680;23.312;2023-04-06T06:45:03;94447.53;;;3.63;63.42
62697;BME280;48761;42.680;23.312;2023-04-06T06:47:29;94473.69;;;4.02;61.12
62697;BME280;48761;42.680;23.312;2023-04-06T06:49:55;94450.78;;;4.04;61.53
62697;BME280;48761;42.680;23.312;2023-04-06T06:52:21;94482.50;;;4.36;60.97
62697;BME280;48761;42.680;23.312;2023-04-06T06:54:47;94467.00;;;4.30;60.82
62697;BME280;48761;42.680;23.312;2023-04-06T06:57:13;94491.16;;;4.21;60.49
62697;BME280;48761;42.680;23.312;2023-04-06T06:59:39;94462.38;;;3.82;60.57
62697;BME280;48761;42.680;23.312;2023-04-06T07:02:05;94491.63;;;4.11;60.52
62697;BME280;48761;42.680;23.312;2023-04-06T07:04:31;94479.75;;;3.67;61.81
62697;BME280;48761;42.680;23.312;2023-04-06T07:06:57;94484.81;;;4.07;61.14
62697;BME280;48761;42.680;23.312;2023-04-06T07:09:23;94472.09;;;3.62;61.78
62697;BME280;48761;42.680;23.312;2023-04-06T07:11:49;94457.06;;;3.46;61.53
62697;BME280;48761;42.680;23.312;2023-04-06T07:14:16;94478.31;;;3.79;60.89
62697;BME280;48761;42.680;23.312;2023-04-06T07:16:42;94463.69;;;3.73;60.65
62697;BME280;48761;42.680;23.312;2023-04-06T07:19:08;94454.84;;;3.74;60.68
62697;BME280;48761;42.680;23.312;2023-04-06T07:21:33;94459.53;;;3.87;60.89
62697;BME280;48761;42.680;23.312;2023-04-06T07:23:59;94477.84;;;3.88;60.92
62697;BME280;48761;42.680;23.312;2023-04-06T07:26:26;94458.31;;;3.57;60.61
62697;BME280;48761;42.680;23.312;2023-04-06T07:28:51;94471.75;;;4.06;60.77
62697;BME280;48761;42.680;23.312;2023-04-06T07:31:17;94475.53;;;4.00;60.44
62697;BME280;48761;42.680;23.312;2023-04-06T07:33:43;94450.16;;;4.17;60.34
62697;BME280;48761;42.680;23.312;2023-04-06T07:36:09;94488.06;;;4.30;59.76
62697;BME280;48761;42.680;23.312;2023-04-06T07:38:35;94481.41;;;4.41;59.04
62697;BME280;48761;42.680;23.312;2023-04-06T07:41:01;94466.19;;;4.30;59.61
62697;BME280;48761;42.680;23.312;2023-04-06T07:43:27;94481.16;;;4.45;58.96
62697;BME280;48761;42.680;23.312;2023-04-06T07:45:53;94480.78;;;4.00;59.72
62697;BME280;48761;42.680;23.312;2023-04-06T07:48:19;94447.69;;;4.47;58.35
62697;BME280;48761;42.680;23.312;2023-04-06T07:50:45;94476.13;;;5.41;57.42
62697;BME280;48761;42.680;23.312;2023-04-06T07:53:11;94466.72;;;6.46;55.69
62697;BME280;48761;42.680;23.312;2023-04-06T07:55:38;94452.63;;;6.00;55.13
62697;BME280;48761;42.680;23.312;2023-04-06T07:58:04;94470.44;;;6.27;53.94
62697;BME280;48761;42.680;23.312;2023-04-06T08:00:30;94471.16;;;6.14;54.62
62697;BME280;48761;42.680;23.312;2023-04-06T08:02:56;94456.16;;;5.84;54.05
62697;BME280;48761;42.680;23.312;2023-04-06T08:05:22;94444.19;;;5.78;54.54
62697;BME280;48761;42.680;23.312;2023-04-06T08:07:48;94465.13;;;5.65;54.83
62697;BME280;48761;42.680;23.312;2023-04-06T08:10:14;94462.81;;;6.22;54.53
62697;BME280;48761;42.680;23.312;2023-04-06T08:12:40;94465.75;;;6.32;53.40
62697;BME280;48761;42.680;23.312;2023-04-06T08:15:06;94429.94;;;5.50;53.86
62697;BME280;48761;42.680;23.312;2023-04-06T08:17:32;94467.06;;;6.25;53.78
62697;BME280;48761;42.680;23.312;2023-04-06T08:19:58;94466.25;;;6.39;53.66
62697;BME280;48761;42.680;23.312;2023-04-06T08:22:24;94456.56;;;6.54;52.78
62697;BME280;48761;42.680;23.312;2023-04-06T08:24:50;94464.13;;;6.90;51.09
62697;BME280;48761;42.680;23.312;2023-04-06T08:27:16;94475.19;;;6.36;52.93
62697;BME280;48761;42.680;23.312;2023-04-06T08:29:42;94479.22;;;7.02;52.22
62697;BME280;48761;42.680;23.312;2023-04-06T08:32:08;94475.59;;;7.18;50.56
62697;BME280;48761;42.680;23.312;2023-04-06T08:34:34;94454.22;;;7.36;50.58
62697;BME280;48761;42.680;23.312;2023-04-06T08:37:00;94466.91;;;6.57;51.30
62697;BME280;48761;42.680;23.312;2023-04-06T08:39:27;94466.31;;;6.37;51.92
62697;BME280;48761;42.680;23.312;2023-04-06T08:41:54;94469.38;;;6.75;52.02
62697;BME280;48761;42.680;23.312;2023-04-06T08:44:20;94475.03;;;6.54;52.31
62697;BME280;48761;42.680;23.312;2023-04-06T08:46:46;94472.97;;;6.74;51.29
62697;BME280;48761;42.680;23.312;2023-04-06T08:49:14;94436.53;;;6.50;50.87
62697;BME280;48761;42.680;23.312;2023-04-06T08:51:42;94465.50;;;6.95;50.23
62697;BME280;48761;42.680;23.312;2023-04-06T08:54:09;94479.00;;;6.16;50.25
62697;BME280;48761;42.680;23.312;2023-04-06T08:56:37;94478.75;;;5.74;51.21
62697;BME280;48761;42.680;23.312;2023-04-06T08:59:04;94458.69;;;5.22;52.32
62697;BME280;48761;42.680;23.312;2023-04-06T09:01:33;94466.31;;;5.59;53.11
62697;BME280;48761;42.680;23.312;2023-04-06T09:04:03;94462.91;;;5.74;52.62
62697;BME280;48761;42.680;23.312;2023-04-06T09:06:29;94465.41;;;6.08;51.50
62697;BME280;48761;42.680;23.312;2023-04-06T09:08:58;94440.88;;;6.51;50.65
62697;BME280;48761;42.680;23.312;2023-04-06T09:11:24;94416.38;;;6.49;49.40
62697;BME280;48761;42.680;23.312;2023-04-06T09:13:52;94470.88;;;7.09;49.56
62697;BME280;48761;42.680;23.312;2023-04-06T09:16:19;94467.78;;;7.02;49.50
62697;BME280;48761;42.680;23.312;2023-04-06T09:18:46;94475.78;;;6.86;50.12
62697;BME280;48761;42.680;23.312;2023-04-06T09:21:13;94470.28;;;7.18;50.88
62697;BME280;48761;42.680;23.312;2023-04-06T09:23:39;94428.25;;;6.71;49.85
62697;BME280;48761;42.680;23.312;2023-04-06T09:26:07;94416.59;;;7.17;49.59
62697;BME280;48761;42.680;23.312;2023-04-06T09:28:50;94431.94;;;7.40;49.94
62697;BME280;48761;42.680;23.312;2023-04-06T09:31:23;94440.06;;;7.37;48.65
62697;BME280;48761;42.680;23.312;2023-04-06T09:33:49;94462.47;;;7.59;48.37
62697;BME280;48761;42.680;23.312;2023-04-06T09:36:15;94430.59;;;7.05;49.48
62697;BME280;48761;42.680;23.312;2023-04-06T09:38:58;94437.31;;;6.81;49.43
62697;BME280;48761;42.680;23.312;2023-04-06T09:41:25;94447.38;;;7.04;49.10
62697;BME280;48761;42.680;23.312;2023-04-06T09:43:52;94448.81;;;6.95;49.42
62697;BME280;48761;42.680;23.312;2023-04-06T09:46:31;94466.19;;;6.70;49.83
62697;BME280;48761;42.680;23.312;2023-04-06T09:48:58;94433.34;;;6.59;50.47
62697;BME280;48761;42.680;23.312;2023-04-06T09:51:26;94452.50;;;6.63;50.44
62697;BME280;48761;42.680;23.312;2023-04-06T09:53:55;94468.94;;;6.23;50.72
62697;BME280;48761;42.680;23.312;2023-04-06T09:56:24;94438.59;;;6.30;50.12
62697;BME280;48761;42.680;23.312;2023-04-06T09:58:57;94459.94;;;6.71;49.23
62697;BME280;48761;42.680;23.312;2023-04-06T10:01:28;94422.75;;;6.30;49.20
62697;BME280;48761;42.680;23.312;2023-04-06T10:06:28;94454.94;;;6.52;49.61
62697;BME280;48761;42.680;23.312;2023-04-06T10:08:57;94419.00;;;6.34;49.12
62697;BME280;48761;42.680;23.312;2023-04-06T10:11:23;94446.69;;;6.27;48.87
62697;BME280;48761;42.680;23.312;2023-04-06T10:13:49;94461.03;;;6.37;49.84
62697;BME280;48761;42.680;23.312;2023-04-06T10:16:16;94450.59;;;6.50;49.76
62697;BME280;48761;42.680;23.312;2023-04-06T10:18:46;94425.19;;;6.19;50.02
62697;BME280;48761;42.680;23.312;2023-04-06T10:21:17;94456.09;;;6.77;49.20
62697;BME280;48761;42.680;23.312;2023-04-06T10:23:51;94454.50;;;5.98;49.76
62697;BME280;48761;42.680;23.312;2023-04-06T10:26:20;94454.38;;;6.46;49.42
62697;BME280;48761;42.680;23.312;2023-04-06T10:28:48;94432.38;;;6.46;48.98
62697;BME280;48761;42.680;23.312;2023-04-06T10:31:14;94450.13;;;6.44;48.80
62697;BME280;48761;42.680;23.312;2023-04-06T10:33:41;94443.81;;;6.61;48.63
62697;BME280;48761;42.680;23.312;2023-04-06T10:36:14;94422.34;;;6.07;49.61
62697;BME280;48761;42.680;23.312;2023-04-06T10:38:42;94400.03;;;5.97;49.46
62697;BME280;48761;42.680;23.312;2023-04-06T10:41:12;94438.25;;;6.51;49.26
62697;BME280;48761;42.680;23.312;2023-04-06T10:43:40;94424.47;;;6.31;48.96
62697;BME280;48761;42.680;23.312;2023-04-06T10:46:07;94419.25;;;6.15;49.09
62697;BME280;48761;42.680;23.312;2023-04-06T10:48:42;94439.63;;;6.42;49.47
62697;BME280;48761;42.680;23.312;2023-04-06T10:51:13;94384.28;;;6.55;48.69
62697;BME280;48761;42.680;23.312;2023-04-06T10:53:44;94408.81;;;6.43;48.86
62697;BME280;48761;42.680;23.312;2023-04-06T10:56:14;94375.06;;;5.88;48.23
62697;BME280;48761;42.680;23.312;2023-04-06T10:58:45;94405.13;;;6.16;48.78
62697;BME280;48761;42.680;23.312;2023-04-06T11:01:12;94442.19;;;6.44;49.00
62697;BME280;48761;42.680;23.312;2023-04-06T11:03:57;94432.66;;;6.26;49.66
62697;BME280;48761;42.680;23.312;2023-04-06T11:06:29;94433.16;;;6.77;50.01
62697;BME280;48761;42.680;23.312;2023-04-06T11:08:55;94427.78;;;6.79;48.14
62697;BME280;48761;42.680;23.312;2023-04-06T11:11:24;94410.50;;;6.88;48.21
62697;BME280;48761;42.680;23.312;2023-04-06T11:13:51;94415.97;;;6.55;49.22
62697;BME280;48761;42.680;23.312;2023-04-06T11:16:23;94373.72;;;6.84;47.99
62697;BME280;48761;42.680;23.312;2023-04-06T11:18:55;94419.81;;;7.50;47.39
62697;BME280;48761;42.680;23.312;2023-04-06T11:21:43;94374.09;;;7.48;47.53
62697;BME280;48761;42.680;23.312;2023-04-06T11:24:14;94412.44;;;7.56;47.26
62697;BME280;48761;42.680;23.312;2023-04-06T11:26:45;94358.97;;;6.95;47.03
62697;BME280;48761;42.680;23.312;2023-04-06T11:29:25;94381.09;;;7.49;47.07
62697;BME280;48761;42.680;23.312;2023-04-06T11:31:57;94380.53;;;7.44;46.52
62697;BME280;48761;42.680;23.312;2023-04-06T11:34:24;94373.13;;;6.94;46.88
62697;BME280;48761;42.680;23.312;2023-04-06T11:36:55;94371.22;;;6.96;47.71
62697;BME280;48761;42.680;23.312;2023-04-06T11:39:23;94394.44;;;6.91;48.02
62697;BME280;48761;42.680;23.312;2023-04-06T11:41:51;94363.31;;;6.96;47.30
62697;BME280;48761;42.680;23.312;2023-04-06T11:44:36;94333.38;;;6.95;46.84
62697;BME280;48761;42.680;23.312;2023-04-06T11:47:04;94398.41;;;7.13;47.48
62697;BME280;48761;42.680;23.312;2023-04-06T11:49:31;94370.34;;;6.53;47.79
62697;BME280;48761;42.680;23.312;2023-04-06T11:52:00;94341.38;;;6.08;48.32
62697;BME280;48761;42.680;23.312;2023-04-06T11:54:37;94384.41;;;6.39;48.21
62697;BME280;48761;42.680;23.312;2023-04-06T11:57:04;94354.50;;;6.24;48.65
62697;BME280;48761;42.680;23.312;2023-04-06T11:59:31;94389.56;;;6.26;48.48
62697;BME280;48761;42.680;23.312;2023-04-06T12:01:58;94355.25;;;6.11;48.76
62697;BME280;48761;42.680;23.312;2023-04-06T12:04:24;94372.75;;;6.12;48.87
62697;BME280;48761;42.680;23.312;2023-04-06T12:06:51;94393.72;;;5.99;49.90
62697;BME280;48761;42.680;23.312;2023-04-06T12:09:21;94386.91;;;6.11;50.62
62697;BME280;48761;42.680;23.312;2023-04-06T12:11:47;94356.94;;;6.12;50.19
62697;BME280;48761;42.680;23.312;2023-04-06T12:14:14;94349.97;;;5.80;50.56
62697;BME280;48761;42.680;23.312;2023-04-06T12:16:42;94351.59;;;5.83;50.55
62697;BME280;48761;42.680;23.312;2023-04-06T12:19:10;94344.97;;;5.76;50.36
62697;BME280;48761;42.680;23.312;2023-04-06T12:21:37;94346.88;;;5.74;50.18
62697;BME280;48761;42.680;23.312;2023-04-06T12:24:04;94364.19;;;6.09;49.86
62697;BME280;48761;42.680;23.312;2023-04-06T12:26:31;94360.72;;;6.23;49.53
62697;BME280;48761;42.680;23.312;2023-04-06T12:28:58;94360.63;;;6.24;48.90
62697;BME280;48761;42.680;23.312;2023-04-06T12:31:27;94373.91;;;6.37;49.17
62697;BME280;48761;42.680;23.312;2023-04-06T12:33:54;94370.13;;;6.27;49.19
62697;BME280;48761;42.680;23.312;2023-04-06T12:36:21;94367.47;;;6.12;49.08
62697;BME280;48761;42.680;23.312;2023-04-06T12:38:48;94374.00;;;6.50;48.93
62697;BME280;48761;42.680;23.312;2023-04-06T12:41:15;94378.44;;;6.35;48.71
62697;BME280;48761;42.680;23.312;2023-04-06T12:43:42;94351.41;;;5.86;49.14
62697;BME280;48761;42.680;23.312;2023-04-06T12:46:10;94351.00;;;5.78;50.00
62697;BME280;48761;42.680;23.312;2023-04-06T12:48:37;94364.03;;;5.81;49.86
62697;BME280;48761;42.680;23.312;2023-04-06T12:51:05;94335.09;;;5.79;49.28
62697;BME280;48761;42.680;23.312;2023-04-06T12:53:33;94325.22;;;5.83;49.46
62697;BME280;48761;42.680;23.312;2023-04-06T12:55:59;94327.47;;;5.89;49.37
62697;BME280;48761;42.680;23.312;2023-04-06T12:58:25;94360.44;;;5.97;50.20
62697;BME280;48761;42.680;23.312;2023-04-06T13:00:51;94347.66;;;5.90;50.34